Time;durP1;ratioP1;P1;durP2;ratioP2;P2;SDS_P1;SDS_P2;PMS_P1;PMS_P2;Temp;Humidity;BMP_temperature;BMP_pressure;BME280_temperature;BME280_humidity;BME280_pressure;Samples;Min_cycle;Max_cycle;Signal;HPM_P1;HPM_P2
2022/01/20 00:03:46;;;;;;;3.33;1.30;;;17.60;63.60;;;;;;10411708;28;20221;-67
2022/01/20 00:09:30;;;;;;;2.97;1.23;;;17.60;63.60;;;;;;10433849;28;20225;-68
2022/01/20 00:26:21;;;;;;;3.80;1.70;;;17.60;63.50;;;;;;10364808;28;20277;-66
2022/01/20 00:31:50;;;;;;;3.13;1.40;;;17.60;63.60;;;;;;10400914;28;20220;-68
2022/01/20 00:37:17;;;;;;;2.60;1.33;;;17.60;63.50;;;;;;10410730;28;20193;-67
2022/01/20 00:42:39;;;;;;;4.53;1.63;;;17.70;63.50;;;;;;10411203;28;20210;-66
2022/01/20 00:48:01;;;;;;;4.87;1.47;;;17.60;63.30;;;;;;10411417;28;20206;-67
2022/01/20 00:53:25;;;;;;;3.27;1.30;;;17.60;63.30;;;;;;10411116;28;20226;-67
2022/01/20 00:58:47;;;;;;;2.50;1.23;;;17.60;63.30;;;;;;10408786;28;20189;-67
2022/01/20 01:04:09;;;;;;;4.23;1.67;;;17.60;63.40;;;;;;10410739;28;20205;-67
2022/01/20 01:09:33;;;;;;;2.30;1.10;;;17.60;63.30;;;;;;10411348;28;20201;-67
2022/01/20 01:14:55;;;;;;;3.33;1.40;;;17.60;63.30;;;;;;10426739;28;20212;-67
2022/01/20 01:20:20;;;;;;;3.60;1.60;;;17.60;63.30;;;;;;10422508;28;20304;-67
2022/01/20 01:25:44;;;;;;;2.40;0.90;;;17.60;63.20;;;;;;10414096;28;20255;-67
2022/01/20 01:36:57;;;;;;;2.73;1.37;;;17.60;63.30;;;;;;10421405;28;20214;-67
2022/01/20 01:42:26;;;;;;;2.40;1.10;;;17.60;63.20;;;;;;10422316;28;20202;-68
2022/01/20 01:47:49;;;;;;;1.93;1.03;;;17.60;63.20;;;;;;10423045;28;20251;-67
2022/01/20 01:53:11;;;;;;;3.63;1.40;;;17.60;63.10;;;;;;10421986;28;20267;-67
2022/01/20 01:58:34;;;;;;;1.73;0.93;;;17.60;63.10;;;;;;10382020;28;20190;-67
2022/01/20 02:04:00;;;;;;;3.40;1.10;;;17.60;63.10;;;;;;10401222;28;20217;-67
2022/01/20 02:09:39;;;;;;;3.33;1.50;;;17.60;63.70;;;;;;10423687;28;20687;-68
2022/01/20 02:20:50;;;;;;;4.07;1.27;;;17.60;62.90;;;;;;10420304;28;20193;-67
2022/01/20 02:26:12;;;;;;;2.00;1.00;;;17.60;63.00;;;;;;10415829;28;20236;-67
2022/01/20 02:31:35;;;;;;;1.83;1.10;;;17.60;63.00;;;;;;10416156;28;20562;-67
2022/01/20 02:37:00;;;;;;;2.77;1.40;;;17.60;63.00;;;;;;10415660;28;20194;-67
2022/01/20 02:48:02;;;;;;;2.40;1.07;;;17.60;62.90;;;;;;10416006;28;20186;-67
2022/01/20 02:53:25;;;;;;;2.77;1.17;;;17.60;62.80;;;;;;10412933;28;20236;-67
2022/01/20 02:58:48;;;;;;;2.77;1.00;;;17.50;62.80;;;;;;10414821;28;20599;-67
2022/01/20 03:04:11;;;;;;;3.33;0.97;;;17.60;62.90;;;;;;10415168;28;20225;-68
2022/01/20 03:09:34;;;;;;;2.63;0.80;;;17.60;62.90;;;;;;10413681;28;20205;-67
2022/01/20 03:14:56;;;;;;;2.63;1.37;;;17.60;62.90;;;;;;10417812;28;20248;-68
2022/01/20 03:20:19;;;;;;;1.97;1.10;;;17.60;62.80;;;;;;10406516;28;20209;-66
2022/01/20 03:25:42;;;;;;;2.37;1.07;;;17.60;62.80;;;;;;10384628;28;20242;-67
2022/01/20 03:31:04;;;;;;;3.00;1.10;;;17.60;62.70;;;;;;10412025;28;20210;-67
2022/01/20 03:36:26;;;;;;;2.00;0.90;;;17.60;62.70;;;;;;10412410;28;20225;-67
2022/01/20 03:41:50;;;;;;;2.53;1.03;;;17.60;62.80;;;;;;10411950;28;20185;-68
2022/01/20 03:47:12;;;;;;;2.33;1.23;;;17.60;62.80;;;;;;10411436;28;20198;-67
2022/01/20 03:52:34;;;;;;;2.57;1.40;;;17.60;62.80;;;;;;10412115;28;20927;-67
2022/01/20 03:57:58;;;;;;;2.07;1.07;;;17.60;62.70;;;;;;10411008;28;20208;-68
2022/01/20 04:03:21;;;;;;;3.33;1.10;;;17.60;62.70;;;;;;10412085;28;20593;-67
2022/01/20 04:08:45;;;;;;;1.80;0.80;;;17.60;62.80;;;;;;10413409;28;20201;-67
2022/01/20 04:14:12;;;;;;;1.77;0.70;;;17.60;62.80;;;;;;10412740;28;20222;-67
2022/01/20 04:19:35;;;;;;;3.43;1.13;;;17.60;62.80;;;;;;10412047;28;20193;-67
2022/01/20 04:24:57;;;;;;;2.03;0.70;;;17.60;62.70;;;;;;10462803;22;20321;-69
2022/01/20 04:30:21;;;;;;;2.50;1.10;;;17.60;62.60;;;;;;10490407;28;20201;-69
2022/01/20 04:35:43;;;;;;;2.57;1.07;;;17.50;62.40;;;;;;10494026;28;20698;-69
2022/01/20 04:41:05;;;;;;;2.03;0.90;;;17.50;62.50;;;;;;10480748;28;20185;-69
2022/01/20 04:46:36;;;;;;;2.10;1.00;;;17.60;62.70;;;;;;10492808;28;20235;-69
2022/01/20 04:57:38;;;;;;;2.43;0.97;;;17.60;62.50;;;;;;10451660;28;20185;-69
2022/01/20 05:03:04;;;;;;;3.93;1.40;;;17.60;62.50;;;;;;10483245;28;20247;-69
2022/01/20 05:08:29;;;;;;;3.03;1.00;;;17.60;62.50;;;;;;10493602;28;20194;-69
2022/01/20 05:13:51;;;;;;;2.17;0.77;;;17.60;62.40;;;;;;10491291;28;20220;-69
2022/01/20 05:19:14;;;;;;;1.63;0.80;;;17.60;62.50;;;;;;10452653;28;20201;-69
2022/01/20 05:24:36;;;;;;;2.33;0.80;;;17.60;62.60;;;;;;10460045;28;20704;-70
2022/01/20 05:29:58;;;;;;;1.27;0.70;;;17.60;62.60;;;;;;10485775;28;20595;-69
2022/01/20 05:35:22;;;;;;;2.47;1.13;;;17.60;62.70;;;;;;10490951;28;20239;-69
2022/01/20 05:40:45;;;;;;;1.30;0.90;;;17.60;62.70;;;;;;10488668;28;20196;-69
2022/01/20 05:46:08;;;;;;;3.20;0.80;;;17.60;62.60;;;;;;10491068;28;20212;-69
2022/01/20 05:51:32;;;;;;;2.73;1.30;;;17.60;62.70;;;;;;10487029;28;20789;-69
2022/01/20 05:56:54;;;;;;;2.60;0.90;;;17.60;62.60;;;;;;10494110;28;20819;-69
2022/01/20 06:02:32;;;;;;;2.20;0.90;;;17.60;63.20;;;;;;10480166;28;20189;-69
2022/01/20 06:07:55;;;;;;;1.90;0.93;;;17.60;62.60;;;;;;10477146;28;20659;-70
2022/01/20 06:13:18;;;;;;;1.77;1.17;;;17.60;62.50;;;;;;10500411;28;20703;-70
2022/01/20 06:18:40;;;;;;;2.53;0.90;;;17.60;62.60;;;;;;10458239;28;20576;-70
2022/01/20 06:24:03;;;;;;;2.27;0.67;;;17.60;62.70;;;;;;10470647;28;20229;-70
2022/01/20 06:29:26;;;;;;;2.47;0.97;;;17.60;62.60;;;;;;10486748;28;20189;-69
2022/01/20 06:34:48;;;;;;;2.13;1.10;;;17.60;62.70;;;;;;10452978;28;20282;-69
2022/01/20 06:40:13;;;;;;;1.43;0.70;;;17.60;62.70;;;;;;10490116;28;20199;-69
2022/01/20 06:45:35;;;;;;;3.03;1.00;;;17.60;62.60;;;;;;10496325;28;20212;-69
2022/01/20 06:50:57;;;;;;;1.70;0.87;;;17.60;62.60;;;;;;10498412;28;20331;-69
2022/01/20 06:56:20;;;;;;;2.73;0.93;;;17.60;62.60;;;;;;10496591;28;20212;-69
2022/01/20 07:01:43;;;;;;;2.40;0.77;;;17.60;62.60;;;;;;10497790;28;20193;-69
2022/01/20 07:07:06;;;;;;;1.90;0.80;;;17.60;62.60;;;;;;10497229;28;20587;-69
2022/01/20 07:12:29;;;;;;;1.27;0.73;;;17.60;62.50;;;;;;10475142;28;20213;-69
2022/01/20 07:17:52;;;;;;;4.47;1.00;;;17.60;62.50;;;;;;10473783;28;20196;-69
2022/01/20 07:23:14;;;;;;;2.13;1.00;;;17.60;62.60;;;;;;10474044;28;20232;-70
2022/01/20 07:28:37;;;;;;;2.80;1.00;;;17.60;62.60;;;;;;10471788;28;20204;-66
2022/01/20 07:33:59;;;;;;;2.07;1.00;;;17.60;62.60;;;;;;10475339;28;20234;-68
2022/01/20 07:39:23;;;;;;;2.17;0.83;;;17.50;61.70;;;;;;10478556;28;20197;-68
2022/01/20 07:44:46;;;;;;;3.03;1.03;;;17.50;61.50;;;;;;10475470;28;20220;-68
2022/01/20 07:50:09;;;;;;;3.27;1.27;;;17.50;61.40;;;;;;10489183;28;20196;-66
2022/01/20 07:55:31;;;;;;;3.03;1.20;;;17.50;61.20;;;;;;10479922;28;20228;-68
2022/01/20 08:00:54;;;;;;;2.47;0.97;;;17.40;62.00;;;;;;10464957;28;20192;-69
2022/01/20 08:06:17;;;;;;;2.50;0.77;;;17.50;61.40;;;;;;10492768;28;20228;-67
2022/01/20 08:11:39;;;;;;;2.27;1.03;;;17.50;62.30;;;;;;10494631;28;20217;-67
2022/01/20 08:17:02;;;;;;;1.70;0.83;;;17.50;61.50;;;;;;10491227;28;20220;-68
2022/01/20 08:22:24;;;;;;;3.57;0.97;;;17.50;61.50;;;;;;10493854;28;20211;-68
2022/01/20 08:27:48;;;;;;;1.47;0.80;;;17.40;61.40;;;;;;10473706;28;20204;-70
2022/01/20 08:33:12;;;;;;;2.27;0.93;;;17.40;61.80;;;;;;10491475;28;20239;-70
2022/01/20 08:38:34;;;;;;;2.50;0.80;;;17.50;62.60;;;;;;10476101;28;20701;-70
2022/01/20 08:43:56;;;;;;;2.53;1.03;;;17.50;62.70;;;;;;10485359;28;20587;-68
2022/01/20 08:49:20;;;;;;;2.70;1.20;;;17.50;61.50;;;;;;10452923;28;20216;-68
2022/01/20 08:54:45;;;;;;;2.40;1.00;;;17.40;61.10;;;;;;10464290;28;20224;-67
2022/01/20 09:00:08;;;;;;;2.77;0.90;;;17.40;61.10;;;;;;10466374;28;20668;-68
2022/01/20 09:05:32;;;;;;;2.20;1.00;;;17.40;61.10;;;;;;10465128;28;20219;-68
2022/01/20 09:10:55;;;;;;;3.47;0.90;;;17.40;61.00;;;;;;10483642;28;20211;-68
2022/01/20 09:16:17;;;;;;;2.73;1.00;;;17.40;61.00;;;;;;10471394;28;20224;-68
2022/01/20 09:21:41;;;;;;;2.67;1.13;;;17.40;61.00;;;;;;10451131;28;20200;-68
2022/01/20 09:27:04;;;;;;;1.63;0.90;;;17.40;61.10;;;;;;10454916;28;20224;-68
2022/01/20 09:32:27;;;;;;;2.30;1.13;;;17.40;61.00;;;;;;10454753;28;20209;-68
2022/01/20 09:37:51;;;;;;;2.77;1.00;;;17.30;61.00;;;;;;10495489;28;20204;-68
2022/01/20 09:43:15;;;;;;;3.40;0.93;;;17.30;61.10;;;;;;10493918;28;20240;-68
2022/01/20 09:48:37;;;;;;;3.07;0.93;;;17.30;61.00;;;;;;10477487;28;20334;-68
2022/01/20 09:54:00;;;;;;;4.07;1.10;;;17.30;61.00;;;;;;10474920;28;20216;-68
2022/01/20 09:59:23;;;;;;;2.73;0.90;;;17.30;61.10;;;;;;10497982;28;20195;-68
2022/01/20 10:04:46;;;;;;;1.83;0.70;;;17.30;60.90;;;;;;10472776;28;20243;-68
2022/01/20 10:10:10;;;;;;;1.53;0.87;;;17.30;61.00;;;;;;10474731;28;20194;-70
2022/01/20 10:15:32;;;;;;;1.90;0.77;;;17.30;61.10;;;;;;10479237;28;20220;-70
2022/01/20 10:20:57;;;;;;;1.83;0.80;;;17.40;62.00;;;;;;10459999;28;20200;-68
2022/01/20 10:26:22;;;;;;;1.97;0.80;;;17.50;62.20;;;;;;10513705;28;20223;-70
2022/01/20 10:31:46;;;;;;;3.40;1.00;;;17.50;62.20;;;;;;10540800;28;20206;-70
2022/01/20 10:37:13;;;;;;;2.13;0.77;;;17.50;62.10;;;;;;10521712;22;20224;-67
2022/01/20 10:42:39;;;;;;;2.93;0.97;;;17.60;62.00;;;;;;10456063;28;20589;-67
2022/01/20 10:48:01;;;;;;;2.97;1.20;;;17.60;62.00;;;;;;10495774;28;20223;-67
2022/01/20 10:53:24;;;;;;;2.10;0.80;;;17.60;62.00;;;;;;10494092;28;20216;-68
2022/01/20 10:58:48;;;;;;;2.40;1.00;;;17.60;62.00;;;;;;10477882;28;20216;-67
2022/01/20 11:04:10;;;;;;;2.23;1.00;;;17.60;61.90;;;;;;10526468;28;20200;-67
2022/01/20 11:09:36;;;;;;;1.80;0.77;;;17.60;61.90;;;;;;10493454;28;20318;-67
2022/01/20 11:15:01;;;;;;;2.70;1.00;;;17.60;61.90;;;;;;10494749;28;20224;-67
2022/01/20 11:20:26;;;;;;;1.93;1.00;;;17.60;61.90;;;;;;10500950;28;20201;-67
2022/01/20 11:25:48;;;;;;;1.47;0.83;;;17.60;61.80;;;;;;10496074;28;20208;-67
2022/01/20 11:31:12;;;;;;;1.83;0.80;;;17.60;61.70;;;;;;10496282;28;20196;-67
2022/01/20 11:36:34;;;;;;;2.47;0.90;;;17.60;61.70;;;;;;10496120;28;20573;-67
2022/01/20 11:41:56;;;;;;;2.10;0.60;;;17.60;61.70;;;;;;10496590;28;20200;-67
2022/01/20 11:47:31;;;;;;;1.60;0.70;;;17.60;61.60;;;;;;10495959;28;20674;-67
2022/01/20 11:52:53;;;;;;;1.80;0.63;;;17.60;61.40;;;;;;10495396;28;20215;-67
2022/01/20 11:58:18;;;;;;;1.83;0.70;;;17.60;61.50;;;;;;10493370;28;20220;-67
2022/01/20 12:03:54;;;;;;;1.63;0.80;;;17.60;61.50;;;;;;10494733;28;20561;-67
2022/01/20 12:09:28;;;;;;;1.27;0.70;;;17.60;61.30;;;;;;10490399;28;20231;-67
2022/01/20 12:14:50;;;;;;;1.77;0.77;;;17.60;61.50;;;;;;10477320;28;20261;-67
2022/01/20 12:20:13;;;;;;;1.27;0.60;;;17.60;61.50;;;;;;10493934;28;20203;-67
2022/01/20 12:25:36;;;;;;;1.53;0.70;;;17.60;61.40;;;;;;10492522;28;20719;-67
2022/01/20 12:31:02;;;;;;;1.37;0.70;;;17.60;61.40;;;;;;10493526;28;20188;-67
2022/01/20 12:36:26;;;;;;;1.07;0.50;;;17.60;61.40;;;;;;10484986;28;20219;-67
2022/01/20 12:41:55;;;;;;;1.83;0.77;;;17.60;61.30;;;;;;10487921;28;20192;-67
2022/01/20 12:47:18;;;;;;;1.30;0.73;;;17.60;61.20;;;;;;10485199;28;20205;-68
2022/01/20 12:52:48;;;;;;;1.77;1.00;;;17.60;61.20;;;;;;10486905;28;20710;-68
2022/01/20 12:58:12;;;;;;;4.27;1.93;;;17.60;61.00;;;;;;10490755;28;20208;-68
2022/01/20 13:03:36;;;;;;;7.17;3.30;;;17.60;61.00;;;;;;10489432;28;20200;-67
2022/01/20 13:09:05;;;;;;;4.33;2.57;;;17.60;61.10;;;;;;10465253;28;20213;-67
2022/01/20 13:14:35;;;;;;;3.33;2.63;;;17.60;61.10;;;;;;10482302;28;20583;-67
2022/01/20 13:19:59;;;;;;;12.40;6.10;;;17.60;61.20;;;;;;10445987;28;20726;-67
2022/01/20 13:25:26;;;;;;;17.70;8.80;;;17.60;61.90;;;;;;10475965;28;20239;-67
2022/01/20 13:30:48;;;;;;;23.67;12.07;;;17.60;61.40;;;;;;10491927;28;20668;-67
2022/01/20 13:36:11;;;;;;;28.07;15.50;;;17.60;61.50;;;;;;10479444;28;20225;-67
2022/01/20 13:41:34;;;;;;;29.67;16.80;;;17.60;61.50;;;;;;10451289;28;20228;-67
2022/01/20 13:47:07;;;;;;;31.90;17.83;;;17.60;61.60;;;;;;10472129;28;20355;-67
2022/01/20 13:52:39;;;;;;;31.10;18.67;;;17.60;61.50;;;;;;10468005;28;20211;-67
2022/01/20 13:58:04;;;;;;;34.90;19.73;;;17.60;61.50;;;;;;10477520;28;20221;-68
2022/01/20 14:03:26;;;;;;;35.63;20.20;;;17.60;61.60;;;;;;10509406;28;20196;-67
2022/01/20 14:08:48;;;;;;;34.73;20.37;;;17.60;61.60;;;;;;10457278;28;20291;-67
2022/01/20 14:14:12;;;;;;;38.30;22.35;;;17.60;61.70;;;;;;10486474;28;20431;-70
2022/01/20 14:19:43;;;;;;;35.47;20.23;;;17.70;61.30;;;;;;10495442;28;20216;-72
2022/01/20 14:25:06;;;;;;;33.77;18.90;;;17.60;61.30;;;;;;10498089;28;20188;-70
2022/01/20 14:30:31;;;;;;;28.77;11.50;;;17.70;61.40;;;;;;10498188;28;20200;-70
2022/01/20 14:35:53;;;;;;;8.33;3.60;;;17.60;56.00;;;;;;10497788;28;20224;-69
2022/01/20 14:41:15;;;;;;;6.80;2.50;;;17.00;47.60;;;;;;10480735;28;20219;-69
2022/01/20 14:46:38;;;;;;;7.20;3.13;;;16.50;46.60;;;;;;10496176;28;20216;-69
2022/01/20 14:52:02;;;;;;;8.75;4.28;;;16.60;50.10;;;;;;10486972;28;20421;-70
2022/01/20 14:57:24;;;;;;;7.63;3.63;;;17.70;50.90;;;;;;10468464;28;20231;-70
2022/01/20 15:02:48;;;;;;;7.47;3.90;;;17.30;53.60;;;;;;10466174;28;20571;-70
2022/01/20 15:08:10;;;;;;;8.03;4.03;;;17.10;54.80;;;;;;10491963;28;20219;-68
2022/01/20 15:13:32;;;;;;;7.03;3.87;;;17.20;55.70;;;;;;10478904;28;20213;-68
2022/01/20 15:18:57;;;;;;;7.43;3.60;;;17.30;56.20;;;;;;10480191;28;20227;-67
2022/01/20 15:24:19;;;;;;;7.40;4.33;;;17.30;56.90;;;;;;10491355;28;20560;-68
2022/01/20 15:29:41;;;;;;;8.07;4.20;;;17.40;57.50;;;;;;10493323;28;20710;-68
2022/01/20 15:35:05;;;;;;;6.67;4.03;;;17.50;57.70;;;;;;10476219;28;20255;-68
2022/01/20 15:40:27;;;;;;;9.93;4.60;;;17.50;57.80;;;;;;10458963;28;20213;-70
2022/01/20 15:45:49;;;;;;;8.17;4.50;;;17.60;58.10;;;;;;10476474;28;20231;-69
2022/01/20 15:51:13;;;;;;;7.70;4.37;;;17.50;57.80;;;;;;10479334;28;20192;-69
2022/01/20 15:56:35;;;;;;;7.07;4.23;;;17.50;57.90;;;;;;10493777;28;20602;-69
2022/01/20 16:01:57;;;;;;;8.48;4.60;;;17.50;58.20;;;;;;10491973;28;20941;-67
2022/01/20 16:07:21;;;;;;;7.80;3.90;;;17.70;57.70;;;;;;10493695;28;20212;-69
2022/01/20 16:12:43;;;;;;;7.67;4.43;;;17.70;58.30;;;;;;10491960;28;20208;-67
2022/01/20 16:18:11;;;;;;;9.73;4.40;;;17.60;58.90;;;;;;10484136;28;20227;-67
2022/01/20 16:23:34;;;;;;;7.70;3.73;;;17.70;59.20;;;;;;10465073;28;20220;-67
2022/01/20 16:28:58;;;;;;;8.37;4.17;;;17.70;59.30;;;;;;10486103;28;20223;-73
2022/01/20 16:34:20;;;;;;;11.70;4.07;;;17.70;59.30;;;;;;10472253;28;20302;-71
2022/01/20 16:39:44;;;;;;;7.73;3.83;;;17.70;59.30;;;;;;10504590;22;20726;-69
2022/01/20 16:45:08;;;;;;;14.70;4.80;;;17.80;59.50;;;;;;10483615;28;20568;-67
2022/01/20 16:50:30;;;;;;;6.53;3.80;;;17.80;59.30;;;;;;10530613;28;20220;-67
2022/01/20 16:55:55;;;;;;;8.13;4.03;;;17.70;59.70;;;;;;10497205;28;20818;-69
2022/01/20 17:01:17;;;;;;;8.80;3.87;;;18.50;57.80;;;;;;10505161;28;20220;-68
2022/01/20 17:06:40;;;;;;;7.00;3.50;;;18.00;58.90;;;;;;10490278;28;20200;-67
2022/01/20 17:12:04;;;;;;;6.90;4.20;;;17.80;59.50;;;;;;10494749;28;20438;-70
2022/01/20 17:17:29;;;;;;;5.97;3.77;;;18.70;56.90;;;;;;10510147;28;20725;-69
2022/01/20 17:22:51;;;;;;;6.97;3.13;;;18.10;58.60;;;;;;10491557;28;20329;-69
2022/01/20 17:28:14;;;;;;;9.70;3.87;;;17.90;59.40;;;;;;10525101;28;20216;-69
2022/01/20 17:33:36;;;;;;;5.03;3.33;;;17.90;59.20;;;;;;10529801;28;20219;-70
2022/01/20 17:38:58;;;;;;;3.90;2.33;;;17.80;59.30;;;;;;10520920;28;20717;-69
2022/01/20 17:44:22;;;;;;;6.37;2.77;;;17.80;59.70;;;;;;10505249;28;20195;-68
2022/01/20 17:49:44;;;;;;;7.77;3.80;;;17.70;59.80;;;;;;10508763;28;20219;-68
2022/01/20 17:55:09;;;;;;;6.27;2.90;;;17.70;59.70;;;;;;10497350;28;20212;-68
2022/01/20 18:00:32;;;;;;;5.70;2.90;;;17.70;59.90;;;;;;10498874;28;20216;-69
2022/01/20 18:05:54;;;;;;;5.90;3.27;;;17.70;59.90;;;;;;10516939;28;20680;-68
2022/01/20 18:11:16;;;;;;;4.27;2.43;;;17.70;59.90;;;;;;10518054;28;20208;-69
2022/01/20 18:16:40;;;;;;;4.10;2.30;;;17.70;59.80;;;;;;10523011;28;20624;-69
2022/01/20 18:22:02;;;;;;;6.50;3.10;;;17.70;59.80;;;;;;10504382;28;20583;-69
2022/01/20 18:27:25;;;;;;;5.90;2.53;;;17.70;59.80;;;;;;10510197;28;20209;-68
2022/01/20 18:32:49;;;;;;;4.03;2.37;;;17.70;59.80;;;;;;10519604;28;20188;-68
2022/01/20 18:38:12;;;;;;;5.07;2.70;;;17.60;59.90;;;;;;10516697;28;20219;-69
2022/01/20 18:43:34;;;;;;;3.63;2.20;;;17.60;60.00;;;;;;10525810;28;20195;-68
2022/01/20 18:48:58;;;;;;;4.10;2.57;;;17.60;59.90;;;;;;10521888;28;20216;-68
2022/01/20 18:54:20;;;;;;;3.90;2.50;;;17.70;59.90;;;;;;10506027;28;20207;-68
2022/01/20 18:59:42;;;;;;;4.40;2.40;;;17.70;59.70;;;;;;10512207;28;20226;-68
2022/01/20 19:05:06;;;;;;;3.37;2.07;;;17.70;59.60;;;;;;10500268;28;20726;-68
2022/01/20 19:10:28;;;;;;;3.77;2.27;;;17.70;59.70;;;;;;10497517;28;20638;-68
2022/01/20 19:15:51;;;;;;;4.70;2.53;;;17.70;59.60;;;;;;10508044;28;20216;-68
2022/01/20 19:21:15;;;;;;;3.50;1.67;;;17.60;59.60;;;;;;10525373;28;20215;-68
2022/01/20 19:26:37;;;;;;;2.83;1.90;;;17.70;59.60;;;;;;10518429;28;20232;-68
2022/01/20 19:31:59;;;;;;;4.10;1.70;;;17.60;59.60;;;;;;10520782;28;20192;-68
2022/01/20 19:37:23;;;;;;;3.30;1.90;;;17.60;60.20;;;;;;10537415;28;20590;-68
2022/01/20 19:42:47;;;;;;;3.50;1.87;;;17.60;59.60;;;;;;10524009;28;20267;-68
2022/01/20 19:48:09;;;;;;;4.73;1.50;;;17.60;59.60;;;;;;10518353;28;20212;-67
2022/01/20 19:53:33;;;;;;;4.37;1.57;;;17.60;59.50;;;;;;10507714;28;20203;-68
2022/01/20 19:58:55;;;;;;;2.83;1.77;;;17.60;59.30;;;;;;10510506;28;20215;-68
2022/01/20 20:04:24;;;;;;;2.13;1.30;;;17.60;59.40;;;;;;10509799;28;20199;-68
2022/01/20 20:09:47;;;;;;;2.87;1.57;;;17.60;59.60;;;;;;10525375;28;20211;-69
2022/01/20 20:15:11;;;;;;;4.40;1.60;;;17.60;59.70;;;;;;10493586;28;20313;-69
2022/01/20 20:20:33;;;;;;;3.57;1.87;;;17.60;59.60;;;;;;10521785;28;20234;-69
2022/01/20 20:25:58;;;;;;;3.47;1.60;;;17.50;59.50;;;;;;10505326;28;20215;-68
2022/01/20 20:31:20;;;;;;;4.13;1.73;;;17.50;58.90;;;;;;10513273;28;20222;-69
2022/01/20 20:36:47;;;;;;;3.40;1.73;;;17.50;59.10;;;;;;10498576;28;20212;-69
2022/01/20 20:42:11;;;;;;;2.60;1.40;;;17.40;59.00;;;;;;10499325;28;20193;-69
2022/01/20 20:47:33;;;;;;;3.43;1.50;;;17.40;59.10;;;;;;10513117;28;20215;-69
2022/01/20 20:52:58;;;;;;;3.10;1.40;;;17.40;59.10;;;;;;10508374;28;20208;-68
2022/01/20 20:58:21;;;;;;;1.80;1.20;;;17.50;59.10;;;;;;10508800;28;20710;-69
2022/01/20 21:03:44;;;;;;;3.00;1.50;;;17.50;59.20;;;;;;10516926;28;20202;-69
2022/01/20 21:09:06;;;;;;;3.17;1.60;;;17.40;59.30;;;;;;10516955;28;20579;-70
2022/01/20 21:14:29;;;;;;;2.10;1.40;;;17.50;59.30;;;;;;10513935;28;20203;-69
2022/01/20 21:19:51;;;;;;;4.00;1.53;;;17.40;59.20;;;;;;10510929;28;20215;-69
2022/01/20 21:25:14;;;;;;;2.83;1.33;;;17.40;59.20;;;;;;10511070;28;20199;-69
2022/01/20 21:30:38;;;;;;;2.57;1.43;;;17.40;59.20;;;;;;10513742;28;20223;-69
2022/01/20 21:36:00;;;;;;;2.03;1.40;;;17.40;59.20;;;;;;10519807;28;20220;-69
2022/01/20 21:41:25;;;;;;;3.43;1.40;;;17.40;59.40;;;;;;10512435;28;20219;-69
2022/01/20 21:46:51;;;;;;;3.23;1.53;;;17.40;59.20;;;;;;10520301;28;20193;-69
2022/01/20 21:52:13;;;;;;;2.47;1.67;;;17.40;59.30;;;;;;10517362;28;20187;-68
2022/01/20 21:57:36;;;;;;;5.13;1.27;;;17.40;59.50;;;;;;10516463;28;20248;-69
2022/01/20 22:02:59;;;;;;;1.83;1.07;;;17.30;59.40;;;;;;10521386;28;20200;-70
2022/01/20 22:08:21;;;;;;;2.47;1.33;;;17.30;59.50;;;;;;10507101;28;20204;-69
2022/01/20 22:13:44;;;;;;;2.33;1.10;;;17.30;59.40;;;;;;10526997;28;20199;-69
2022/01/20 22:19:08;;;;;;;3.70;1.63;;;17.30;59.40;;;;;;10500648;28;20323;-69
2022/01/20 22:24:32;;;;;;;2.43;1.17;;;17.30;59.40;;;;;;10518036;28;20576;-70
2022/01/20 22:29:54;;;;;;;2.47;1.50;;;17.30;59.40;;;;;;10513645;28;20216;-67
2022/01/20 22:35:18;;;;;;;2.97;1.33;;;17.30;59.20;;;;;;10498547;28;20702;-70
2022/01/20 22:40:40;;;;;;;2.20;1.07;;;17.30;59.30;;;;;;10520985;22;20232;-68
2022/01/20 22:46:04;;;;;;;1.73;1.00;;;17.30;59.30;;;;;;10509120;28;20656;-69
2022/01/20 22:51:28;;;;;;;2.10;1.30;;;17.30;59.20;;;;;;10529381;28;20224;-68
2022/01/20 22:56:50;;;;;;;2.53;1.20;;;17.30;59.20;;;;;;10537323;28;20616;-68
2022/01/20 23:02:13;;;;;;;3.83;1.37;;;17.30;59.20;;;;;;10533370;28;20225;-69
2022/01/20 23:07:36;;;;;;;1.93;1.00;;;17.30;59.30;;;;;;10518668;28;20199;-68
2022/01/20 23:12:58;;;;;;;2.37;1.17;;;17.30;59.20;;;;;;10536947;28;20571;-68
2022/01/20 23:18:33;;;;;;;2.00;1.00;;;17.30;59.90;;;;;;10528742;28;20215;-68
2022/01/20 23:23:57;;;;;;;1.47;1.07;;;17.30;59.30;;;;;;10523450;28;20218;-68
2022/01/20 23:29:20;;;;;;;1.87;1.00;;;17.30;59.30;;;;;;10524280;28;20219;-68
2022/01/20 23:34:42;;;;;;;1.30;1.00;;;17.30;59.30;;;;;;10536612;28;20216;-68
2022/01/20 23:40:10;;;;;;;2.43;1.10;;;17.30;59.20;;;;;;10535891;28;20230;-68
2022/01/20 23:48:06;;;;;;;2.03;1.00;;;17.30;59.80;;;;;;10536296;28;20202;-68
2022/01/20 23:51:15;;;;;;;2.43;1.10;;;17.30;59.10;;;;;;10532315;28;20219;-68
2022/01/20 23:56:39;;;;;;;1.53;0.80;;;17.30;59.10;;;;;;10497529;28;20583;-68
